createdAt,value
2018-04-06T00:00:59.376Z,43.37
2018-04-06T00:02:08.203Z,43.27
2018-04-06T00:03:17.031Z,43.37
2018-04-06T00:04:25.862Z,43.37
2018-04-06T00:05:34.690Z,43.27
2018-04-06T00:06:44.064Z,43.08
2018-04-06T00:07:52.896Z,43.08
2018-04-06T00:09:02.003Z,43.08
2018-04-06T00:10:10.827Z,43.08
2018-04-06T00:11:20.078Z,42.71
2018-04-06T00:12:28.908Z,43.08
2018-04-06T00:13:37.735Z,42.71
2018-04-06T00:14:46.563Z,42.8
2018-04-06T00:15:55.390Z,42.52
2018-04-06T00:17:04.268Z,42.52
2018-04-06T00:18:13.110Z,42.71
2018-04-06T00:19:21.939Z,42.43
2018-04-06T00:20:31.050Z,42.43
2018-04-06T00:21:40.152Z,41.95
2018-04-06T00:22:49.227Z,42.14
2018-04-06T00:23:58.053Z,41.36
2018-04-06T00:25:06.882Z,41.27
2018-04-06T00:26:15.709Z,41.17
2018-04-06T00:27:24.539Z,40.72
2018-04-06T00:28:33.516Z,40.98
2018-04-06T00:29:42.352Z,40.53
2018-04-06T00:30:51.178Z,40.89
2018-04-06T00:31:59.998Z,40.51
2018-04-06T00:33:09.117Z,40.51
2018-04-06T00:34:17.944Z,40.41
2018-04-06T00:35:26.771Z,40.32
2018-04-06T00:36:35.876Z,40.13
2018-04-06T00:37:45.252Z,40.13
2018-04-06T00:38:54.080Z,40.03
2018-04-06T00:40:03.056Z,39.94
2018-04-06T00:41:11.885Z,39.84
2018-04-06T00:42:20.714Z,39.84
2018-04-06T00:43:29.542Z,39.94
2018-04-06T00:44:38.370Z,39.75
2018-04-06T00:45:47.476Z,39.65
2018-04-06T00:46:56.306Z,39.56
2018-04-06T00:48:05.412Z,39.65
2018-04-06T00:49:14.241Z,39.65
2018-04-06T00:50:23.071Z,39.28
2018-04-06T00:51:31.896Z,39.56
2018-04-06T00:52:40.726Z,39.28
2018-04-06T00:53:49.553Z,39.18
2018-04-06T00:54:58.378Z,39.18
2018-04-06T00:56:07.208Z,39.28
2018-04-06T00:57:16.139Z,38.62
2018-04-06T00:58:25.020Z,38.14
2018-04-06T00:59:34.121Z,38.33
2018-04-06T01:00:42.949Z,38.43
2018-04-06T01:01:51.779Z,38.43
2018-04-06T01:03:00.881Z,38.43
2018-04-06T01:04:09.708Z,38.43
2018-04-06T01:05:18.533Z,38.33
2018-04-06T01:06:27.638Z,37.67
2018-04-06T01:07:36.466Z,37.67
2018-04-06T01:08:45.446Z,37.48
2018-04-06T01:09:54.272Z,37.48
2018-04-06T01:11:03.100Z,37.67
2018-04-06T01:12:11.928Z,37.38
2018-04-06T01:13:20.756Z,37.57
2018-04-06T01:14:29.634Z,37.57
2018-04-06T01:15:38.739Z,37.1
2018-04-06T01:16:47.569Z,36.91
2018-04-06T01:17:56.398Z,36.82
2018-04-06T01:19:05.226Z,36.91
2018-04-06T01:20:14.052Z,36.91
2018-04-06T01:21:22.879Z,36.91
2018-04-06T01:22:31.704Z,36.82
2018-04-06T01:23:40.535Z,36.63
2018-04-06T01:24:49.926Z,36.54
2018-04-06T01:25:58.752Z,36.63
2018-04-06T01:27:07.580Z,36.54
2018-04-06T01:28:16.688Z,36.54
2018-04-06T01:29:25.514Z,36.54
2018-04-06T01:30:34.340Z,36.44
2018-04-06T01:31:43.274Z,36.15
2018-04-06T01:32:52.670Z,36.15
2018-04-06T01:34:01.774Z,36.15
2018-04-06T01:35:10.876Z,36.06
2018-04-06T01:36:19.983Z,35.77
2018-04-06T01:37:29.085Z,35.68
2018-04-06T01:38:37.912Z,35.87
2018-04-06T01:39:46.742Z,35.87
2018-04-06T01:40:55.567Z,35.87
2018-04-06T01:42:04.400Z,35.58
2018-04-06T01:43:13.227Z,35.58
2018-04-06T01:44:22.055Z,35.68
2018-04-06T01:45:30.882Z,35.58
2018-04-06T01:46:39.982Z,35.49
2018-04-06T01:47:48.808Z,35.49
2018-04-06T01:48:57.785Z,35.49
2018-04-06T01:50:06.614Z,35.58
2018-04-06T01:51:15.713Z,35.3
2018-04-06T01:52:24.541Z,35.11
2018-04-06T01:53:33.368Z,35.02
2018-04-06T01:54:42.246Z,35.21
2018-04-06T01:55:51.072Z,34.81
2018-04-06T01:57:00.182Z,34.92
2018-04-06T01:58:09.014Z,34.55
2018-04-06T01:59:17.841Z,34.64
2018-04-06T02:00:26.966Z,34.45
2018-04-06T02:01:35.794Z,34.64
2018-04-06T02:02:44.621Z,34.44
2018-04-06T02:03:53.447Z,34.26
2018-04-06T02:05:02.276Z,34.25
2018-04-06T02:06:11.480Z,34.26
2018-04-06T02:07:20.306Z,34.26
2018-04-06T02:08:29.135Z,34.26
2018-04-06T02:09:37.960Z,34.17
2018-04-06T02:10:46.788Z,34.06
2018-04-06T02:11:55.615Z,34.15
2018-04-06T02:13:04.441Z,34.17
2018-04-06T02:14:13.270Z,34.17
2018-04-06T02:15:22.100Z,33.96
2018-04-06T02:16:30.927Z,34.06
2018-04-06T02:17:39.755Z,34.15
2018-04-06T02:18:48.577Z,33.98
2018-04-06T02:19:57.404Z,33.96
2018-04-06T02:21:06.510Z,33.96
2018-04-06T02:22:15.336Z,33.96
2018-04-06T02:23:24.314Z,33.87
2018-04-06T02:24:33.225Z,33.87
2018-04-06T02:25:41.969Z,33.77
2018-04-06T02:26:50.797Z,33.87
2018-04-06T02:28:00.180Z,33.87
2018-04-06T02:29:09.058Z,33.87
2018-04-06T02:30:17.888Z,33.77
2018-04-06T02:31:26.714Z,33.96
2018-04-06T02:32:35.542Z,33.77
2018-04-06T02:33:44.369Z,33.87
2018-04-06T02:34:53.201Z,33.3
2018-04-06T02:36:02.025Z,33.3
2018-04-06T02:37:10.850Z,33.41
2018-04-06T02:38:19.679Z,33.3
2018-04-06T02:39:28.512Z,33.31
2018-04-06T02:40:37.625Z,33.2
2018-04-06T02:41:46.453Z,33.39
2018-04-06T02:42:55.280Z,33.58
2018-04-06T02:44:04.108Z,33.58
2018-04-06T02:45:12.935Z,33.39
2018-04-06T02:46:22.210Z,33.68
2018-04-06T02:47:31.041Z,33.87
2018-04-06T02:48:39.872Z,33.87
2018-04-06T02:49:48.699Z,33.68
2018-04-06T02:50:57.527Z,33.58
2018-04-06T02:52:06.455Z,33.39
2018-04-06T02:53:15.283Z,33.2
2018-04-06T02:54:24.109Z,33.39
2018-04-06T02:55:32.937Z,33.2
2018-04-06T02:56:41.765Z,33.39
2018-04-06T02:57:50.645Z,33.3
2018-04-06T02:58:59.474Z,33.3
2018-04-06T03:00:08.310Z,33.11
2018-04-06T03:01:17.134Z,32.92
2018-04-06T03:02:26.236Z,33.01
2018-04-06T03:03:35.114Z,33.01
2018-04-06T03:04:43.938Z,33.01
2018-04-06T03:05:52.765Z,33.2
2018-04-06T03:07:01.592Z,33.01
2018-04-06T03:08:10.420Z,33.11
2018-04-06T03:09:19.350Z,33.01
2018-04-06T03:10:28.173Z,33.01
2018-04-06T03:11:37.002Z,32.92
2018-04-06T03:12:45.830Z,32.92
2018-04-06T03:13:54.656Z,33.11
2018-04-06T03:15:03.487Z,32.92
2018-04-06T03:16:12.317Z,33.01
2018-04-06T03:17:21.141Z,32.92
2018-04-06T03:18:30.242Z,32.92
2018-04-06T03:19:39.069Z,32.92
2018-04-06T03:20:48.046Z,32.92
2018-04-06T03:21:56.874Z,32.73
2018-04-06T03:23:05.702Z,32.73
2018-04-06T03:24:14.527Z,32.73
2018-04-06T03:25:23.356Z,32.92
2018-04-06T03:26:32.283Z,33.01
2018-04-06T03:27:41.107Z,32.64
2018-04-06T03:28:49.933Z,32.54
2018-04-06T03:29:58.761Z,32.82
2018-04-06T03:31:07.589Z,32.82
2018-04-06T03:32:16.996Z,32.82
2018-04-06T03:33:25.827Z,32.82
2018-04-06T03:34:34.659Z,32.82
2018-04-06T03:35:43.757Z,32.35
2018-04-06T03:36:52.865Z,32.82
2018-04-06T03:38:02.218Z,32.82
2018-04-06T03:39:11.325Z,32.35
2018-04-06T03:40:20.150Z,32.54
2018-04-06T03:41:28.978Z,32.82
2018-04-06T03:42:37.804Z,32.82
2018-04-06T03:43:46.782Z,32.82
2018-04-06T03:44:55.612Z,32.82
2018-04-06T03:46:04.436Z,32.92
2018-04-06T03:47:13.265Z,32.64
2018-04-06T03:48:22.090Z,32.64
2018-04-06T03:49:31.167Z,32.45
2018-04-06T03:50:39.994Z,32.73
2018-04-06T03:51:48.824Z,32.64
2018-04-06T03:52:57.924Z,32.45
2018-04-06T03:54:06.752Z,32.35
2018-04-06T03:55:15.906Z,32.26
2018-04-06T03:56:24.732Z,31.88
2018-04-06T03:57:33.558Z,31.98
2018-04-06T03:58:42.384Z,31.79
2018-04-06T03:59:51.209Z,31.5
2018-04-06T04:01:00.086Z,31.6
2018-04-06T04:02:08.912Z,31.12
2018-04-06T04:03:17.738Z,31.22
2018-04-06T04:04:26.565Z,31.12
2018-04-06T04:05:35.673Z,31.31
2018-04-06T04:06:44.499Z,31.12
2018-04-06T04:07:53.327Z,31.12
2018-04-06T04:09:02.154Z,31.22
2018-04-06T04:10:10.981Z,31.31
2018-04-06T04:11:19.812Z,31.31
2018-04-06T04:12:29.070Z,31.22
2018-04-06T04:13:38.185Z,31.31
2018-04-06T04:14:47.011Z,31.31
2018-04-06T04:15:55.835Z,31.31
2018-04-06T04:17:04.662Z,31.31
2018-04-06T04:18:13.840Z,31.22
2018-04-06T04:19:22.943Z,31.03
2018-04-06T04:20:31.774Z,30.93
2018-04-06T04:21:40.884Z,31.03
2018-04-06T04:22:49.713Z,31.31
2018-04-06T04:23:58.590Z,30.93
2018-04-06T04:25:07.419Z,31.31
2018-04-06T04:26:16.516Z,30.84
2018-04-06T04:27:25.352Z,31.41
2018-04-06T04:28:34.174Z,31.22
2018-04-06T04:29:43.049Z,31.31
2018-04-06T04:30:51.876Z,31.22
2018-04-06T04:32:00.703Z,31.31
2018-04-06T04:33:09.805Z,31.41
2018-04-06T04:34:18.629Z,31.6
2018-04-06T04:35:27.987Z,31.31
2018-04-06T04:36:37.087Z,31.41
2018-04-06T04:37:45.914Z,31.88
2018-04-06T04:38:54.743Z,31.6
2018-04-06T04:40:03.848Z,31.41
2018-04-06T04:41:13.103Z,31.5
2018-04-06T04:42:22.205Z,31.31
2018-04-06T04:43:31.309Z,31.41
2018-04-06T04:44:40.133Z,31.5
2018-04-06T04:45:48.959Z,31.31
2018-04-06T04:46:57.786Z,31.88
2018-04-06T04:48:06.908Z,31.69
2018-04-06T04:49:15.736Z,31.41
2018-04-06T04:50:24.564Z,31.6
2018-04-06T04:51:33.393Z,31.88
2018-04-06T04:52:42.546Z,31.5
2018-04-06T04:53:51.658Z,31.69
2018-04-06T04:55:00.485Z,31.6
2018-04-06T04:56:09.310Z,31.69
2018-04-06T04:57:18.140Z,31.5
2018-04-06T04:58:27.300Z,31.79
2018-04-06T04:59:36.403Z,31.88
2018-04-06T05:00:45.230Z,31.98
2018-04-06T05:01:54.055Z,31.69
2018-04-06T05:03:03.158Z,31.69
2018-04-06T05:04:12.035Z,31.88
2018-04-06T05:05:20.860Z,32.07
2018-04-06T05:06:29.692Z,31.88
2018-04-06T05:07:38.518Z,31.88
2018-04-06T05:08:47.626Z,31.88
2018-04-06T05:09:56.653Z,32.07
2018-04-06T05:11:05.483Z,32.07
2018-04-06T05:12:14.584Z,32.07
2018-04-06T05:13:23.411Z,32.07
2018-04-06T05:14:32.239Z,32.07
2018-04-06T05:15:41.116Z,31.69
2018-04-06T05:16:49.941Z,31.98
2018-04-06T05:17:58.769Z,31.79
2018-04-06T05:19:07.596Z,31.98
2018-04-06T05:20:16.421Z,32.17
2018-04-06T05:21:25.398Z,31.98
2018-04-06T05:22:34.226Z,31.69
2018-04-06T05:23:43.053Z,32.07
2018-04-06T05:24:51.877Z,31.88
2018-04-06T05:26:00.704Z,31.79
2018-04-06T05:27:09.530Z,31.6
2018-04-06T05:28:18.353Z,31.79
2018-04-06T05:29:27.457Z,31.69
2018-04-06T05:30:36.284Z,31.41
2018-04-06T05:31:45.109Z,31.69
2018-04-06T05:32:54.238Z,31.31
2018-04-06T05:34:03.068Z,31.5
2018-04-06T05:35:11.894Z,31.5
2018-04-06T05:36:20.721Z,31.31
2018-04-06T05:37:29.601Z,31.31
2018-04-06T05:38:38.718Z,31.03
2018-04-06T05:39:47.501Z,30.93
2018-04-06T05:40:56.619Z,31.03
2018-04-06T05:42:05.448Z,31.03
2018-04-06T05:43:14.273Z,30.84
2018-04-06T05:44:23.100Z,30.74
2018-04-06T05:45:32.027Z,30.65
2018-04-06T05:46:41.141Z,30.55
2018-04-06T05:47:50.242Z,30.36
2018-04-06T05:48:59.347Z,30.46
2018-04-06T05:50:08.223Z,30.46
2018-04-06T05:51:17.050Z,30.46
2018-04-06T05:52:25.877Z,30.46
2018-04-06T05:53:34.980Z,30.46
2018-04-06T05:54:43.807Z,30.18
2018-04-06T05:55:52.840Z,30.27
2018-04-06T05:57:01.662Z,30.18
2018-04-06T05:58:10.494Z,30.18
2018-04-06T05:59:19.325Z,30.18
2018-04-06T06:00:28.150Z,29.9
2018-04-06T06:01:37.252Z,29.61
2018-04-06T06:02:46.083Z,29.9
2018-04-06T06:03:54.908Z,29.61
2018-04-06T06:05:03.736Z,29.8
2018-04-06T06:06:12.564Z,29.52
2018-04-06T06:07:21.768Z,29.33
2018-04-06T06:08:30.597Z,29.43
2018-04-06T06:09:39.426Z,29.33
2018-04-06T06:10:48.254Z,29.52
2018-04-06T06:11:57.081Z,28.95
2018-04-06T06:13:06.214Z,29.43
2018-04-06T06:14:15.042Z,28.96
2018-04-06T06:15:23.871Z,29.05
2018-04-06T06:16:32.700Z,29.05
2018-04-06T06:17:41.530Z,29.05
2018-04-06T06:18:50.509Z,29.53
2018-04-06T06:19:59.335Z,29.34
2018-04-06T06:21:08.444Z,29.15
2018-04-06T06:22:17.272Z,28.96
2018-04-06T06:23:26.377Z,29.05
2018-04-06T06:24:35.307Z,29.05
2018-04-06T06:25:44.134Z,29.05
2018-04-06T06:26:52.965Z,29.24
2018-04-06T06:28:01.791Z,29.24
2018-04-06T06:29:10.661Z,29.05
2018-04-06T06:30:19.848Z,29.05
2018-04-06T06:31:28.676Z,28.96
2018-04-06T06:32:37.507Z,28.96
2018-04-06T06:33:46.606Z,28.96
2018-04-06T06:34:55.436Z,29.05
2018-04-06T06:36:04.276Z,28.86
2018-04-06T06:37:13.105Z,29.05
2018-04-06T06:38:21.933Z,29.05
2018-04-06T06:39:30.762Z,29.15
2018-04-06T06:40:39.591Z,29.15
2018-04-06T06:41:48.621Z,28.96
2018-04-06T06:42:57.457Z,29.34
2018-04-06T06:44:06.576Z,29.24
2018-04-06T06:45:15.406Z,29.34
2018-04-06T06:46:25.070Z,29.34
2018-04-06T06:47:33.899Z,29.15
2018-04-06T06:48:42.727Z,29.53
2018-04-06T06:49:51.559Z,29.35
2018-04-06T06:51:00.383Z,29.45
2018-04-06T06:52:09.485Z,29.73
2018-04-06T06:53:18.413Z,30.02
2018-04-06T06:54:27.242Z,30.02
2018-04-06T06:55:36.075Z,29.64
2018-04-06T06:56:44.900Z,29.83
2018-04-06T06:57:53.728Z,29.92
2018-04-06T06:59:02.609Z,29.83
2018-04-06T07:00:11.713Z,30.02
2018-04-06T07:01:20.818Z,30.11
2018-04-06T07:02:29.649Z,30.3
2018-04-06T07:03:38.480Z,30.49
2018-04-06T07:04:47.561Z,30.77
2018-04-06T07:05:56.388Z,30.21
2018-04-06T07:07:05.218Z,30.3
2018-04-06T07:08:14.321Z,30.87
2018-04-06T07:09:23.149Z,30.49
2018-04-06T07:10:32.035Z,30.68
2018-04-06T07:11:40.858Z,30.68
2018-04-06T07:12:49.963Z,30.49
2018-04-06T07:13:59.074Z,30.96
2018-04-06T07:15:07.901Z,31.06
2018-04-06T07:16:16.778Z,32.29
2018-04-06T07:17:25.608Z,32.01
2018-04-06T07:18:34.715Z,31.44
2018-04-06T07:19:43.545Z,31.63
2018-04-06T07:20:52.384Z,32.2
2018-04-06T07:22:01.454Z,31.91
2018-04-06T07:23:10.284Z,31.93
2018-04-06T07:24:19.114Z,32.12
2018-04-06T07:25:27.941Z,31.83
2018-04-06T07:26:36.773Z,32.12
2018-04-06T07:27:45.655Z,30.98
2018-04-06T07:28:54.488Z,31.83
2018-04-06T07:30:03.319Z,31.64
2018-04-06T07:31:12.150Z,32.87
2018-04-06T07:32:21.261Z,33.35
2018-04-06T07:33:30.724Z,35.81
2018-04-06T07:34:39.555Z,37.33
2018-04-06T07:35:48.387Z,36.19
2018-04-06T07:36:57.215Z,35.91
2018-04-06T07:38:06.046Z,36
2018-04-06T07:39:15.028Z,35.81
2018-04-06T07:40:23.854Z,35.43
2018-04-06T07:41:32.683Z,36.38
2018-04-06T07:42:41.511Z,37.9
2018-04-06T07:43:50.343Z,38.37
2018-04-06T07:44:59.753Z,39.03
2018-04-06T07:46:08.584Z,39.15
2018-04-06T07:47:17.685Z,38.1
2018-04-06T07:48:26.514Z,37.82
2018-04-06T07:49:35.346Z,38.2
2018-04-06T07:50:44.222Z,39.15
2018-04-06T07:51:53.002Z,39.05
2018-04-06T07:53:02.108Z,37.54
2018-04-06T07:54:10.939Z,37.82
2018-04-06T07:55:19.768Z,38.39
2018-04-06T07:56:28.700Z,38.39
2018-04-06T07:57:37.529Z,38.29
2018-04-06T07:58:46.361Z,38.2
2018-04-06T07:59:55.194Z,38.96
2018-04-06T08:01:04.300Z,39.53
2018-04-06T08:02:13.229Z,39.43
2018-04-06T08:03:22.078Z,40.76
2018-04-06T08:04:30.890Z,41.24
2018-04-06T08:05:40.046Z,42.66
2018-04-06T08:06:48.875Z,43.15
2018-04-06T08:07:57.905Z,44.57
2018-04-06T08:09:07.029Z,43.05
2018-04-06T08:10:16.133Z,42.96
2018-04-06T08:11:25.239Z,45.81
2018-04-06T08:12:34.069Z,47.8
2018-04-06T08:13:42.949Z,46.75
2018-04-06T08:14:52.058Z,46.66
2018-04-06T08:16:00.889Z,47.61
2018-04-06T08:17:10.562Z,46.75
2018-04-06T08:18:19.393Z,46
2018-04-06T08:19:28.830Z,46
2018-04-06T08:20:37.938Z,45.81
2018-04-06T08:21:47.047Z,44.88
2018-04-06T08:22:55.873Z,47.63
2018-04-06T08:24:04.705Z,48.3
2018-04-06T08:25:13.588Z,47.34
2018-04-06T08:26:22.452Z,47.82
2018-04-06T08:27:31.560Z,48.01
2018-04-06T08:28:40.389Z,48.77
2018-04-06T08:29:49.220Z,48.77
2018-04-06T08:30:58.335Z,51.14
2018-04-06T08:32:07.166Z,52.02
2018-04-06T08:33:16.270Z,51.45
2018-04-06T08:34:25.099Z,51.52
2018-04-06T08:35:33.929Z,51.43
2018-04-06T08:36:42.813Z,52.66
2018-04-06T08:37:51.647Z,52.47
2018-04-06T08:39:00.477Z,52.56
2018-04-06T08:40:09.309Z,53.42
2018-04-06T08:41:18.140Z,53.92
2018-04-06T08:42:27.054Z,54.02
2018-04-06T08:43:35.859Z,53.73
2018-04-06T08:44:44.685Z,54.11
2018-04-06T08:45:53.517Z,52.69
2018-04-06T08:47:02.351Z,53.92
2018-04-06T08:48:11.508Z,55.63
2018-04-06T08:49:20.340Z,58.1
2018-04-06T08:50:29.173Z,58
2018-04-06T08:51:38.005Z,57.53
2018-04-06T08:52:46.836Z,60
2018-04-06T08:53:55.974Z,60.66
2018-04-06T08:55:04.802Z,60.28
2018-04-06T08:56:13.909Z,61.42
2018-04-06T08:57:22.744Z,61.52
2018-04-06T08:58:31.851Z,61.36
2018-04-06T08:59:40.936Z,62.4
2018-04-06T09:00:50.040Z,63.17
2018-04-06T09:01:58.881Z,63.17
2018-04-06T09:03:07.992Z,62.4
2018-04-06T09:04:16.824Z,63.17
2018-04-06T09:05:25.855Z,65.92
2018-04-06T09:06:34.688Z,66.67
2018-04-06T09:07:43.546Z,66.77
2018-04-06T09:08:52.352Z,67.15
2018-04-06T09:10:01.182Z,68.58
2018-04-06T09:11:10.221Z,70.1
2018-04-06T09:12:19.051Z,72.47
2018-04-06T09:13:27.884Z,71.23
2018-04-06T09:14:36.717Z,71.04
2018-04-06T09:15:45.841Z,71.43
2018-04-06T09:16:54.675Z,71.14
2018-04-06T09:18:03.508Z,70.57
2018-04-06T09:19:12.339Z,70.32
2018-04-06T09:20:21.172Z,70.42
2018-04-06T09:21:30.005Z,69.85
2018-04-06T09:22:38.990Z,69.56
2018-04-06T09:23:47.825Z,69.37
2018-04-06T09:24:56.662Z,69.18
2018-04-06T09:26:05.491Z,69.66
2018-04-06T09:27:14.325Z,68.71
2018-04-06T09:28:23.157Z,70.42
2018-04-06T09:29:32.269Z,69.85
2018-04-06T09:30:41.103Z,70.13
2018-04-06T09:31:49.934Z,70.45
2018-04-06T09:32:58.766Z,71.22
2018-04-06T09:34:07.750Z,71.97
2018-04-06T09:35:16.586Z,71.78
2018-04-06T09:36:25.421Z,71.69
2018-04-06T09:37:34.255Z,71.31
2018-04-06T09:38:43.088Z,72.55
2018-04-06T09:39:52.222Z,75.4
2018-04-06T09:41:01.059Z,75.78
2018-04-06T09:42:09.891Z,75.87
2018-04-06T09:43:18.724Z,74.35
2018-04-06T09:44:27.556Z,75.68
2018-04-06T09:45:36.439Z,75.87
2018-04-06T09:46:45.275Z,75.4
2018-04-06T09:47:54.109Z,75.87
2018-04-06T09:49:02.943Z,75.02
2018-04-06T09:50:11.776Z,75.21
2018-04-06T09:51:20.611Z,75.87
2018-04-06T09:52:29.449Z,76.35
2018-04-06T09:53:38.560Z,75.78
2018-04-06T09:54:47.389Z,75.87
2018-04-06T09:55:56.219Z,75.78
2018-04-06T09:57:05.477Z,75.43
2018-04-06T09:58:14.310Z,77.15
2018-04-06T09:59:23.143Z,78
2018-04-06T10:00:31.975Z,80.19
2018-04-06T10:01:40.816Z,79.91
2018-04-06T10:02:50.000Z,80.38
2018-04-06T10:03:58.807Z,81.05
2018-04-06T10:05:08.193Z,80.95
2018-04-06T10:06:17.031Z,81.81
2018-04-06T10:07:25.861Z,81.81
2018-04-06T10:08:35.070Z,84.19
2018-04-06T10:09:43.903Z,86.09
2018-04-06T10:10:52.780Z,86.09
2018-04-06T10:12:01.571Z,86.09
2018-04-06T10:13:10.403Z,86.09
2018-04-06T10:14:19.287Z,86.85
2018-04-06T10:15:28.118Z,86.94
2018-04-06T10:16:36.953Z,87.42
2018-04-06T10:17:45.788Z,86.94
2018-04-06T10:18:54.620Z,86.99
2018-04-06T10:20:03.503Z,87.37
2018-04-06T10:21:12.610Z,88.6
2018-04-06T10:22:21.443Z,87.46
2018-04-06T10:23:30.329Z,87.65
2018-04-06T10:24:39.166Z,88.32
2018-04-06T10:25:48.145Z,87.46
2018-04-06T10:26:56.980Z,88.23
2018-04-06T10:28:05.848Z,88.79
2018-04-06T10:29:14.649Z,89.37
2018-04-06T10:30:23.757Z,88.79
2018-04-06T10:31:32.691Z,88.42
2018-04-06T10:32:41.810Z,89.27
2018-04-06T10:33:50.921Z,89.22
2018-04-06T10:35:00.032Z,89.84
2018-04-06T10:36:08.862Z,89.75
2018-04-06T10:37:17.974Z,89.94
2018-04-06T10:38:26.809Z,89.84
2018-04-06T10:39:35.641Z,89.32
2018-04-06T10:40:44.475Z,89.03
2018-04-06T10:41:53.314Z,88.93
2018-04-06T10:43:02.194Z,88.46
2018-04-06T10:44:11.029Z,88.37
2018-04-06T10:45:19.863Z,89.51
2018-04-06T10:46:28.698Z,87.89
2018-04-06T10:47:37.531Z,88.37
2018-04-06T10:48:46.616Z,88.56
2018-04-06T10:49:55.451Z,89.7
2018-04-06T10:51:04.569Z,90.17
2018-04-06T10:52:13.407Z,89.7
2018-04-06T10:53:22.283Z,89.75
2018-04-06T10:54:31.531Z,89.94
2018-04-06T10:55:40.367Z,90.22
2018-04-06T10:56:49.200Z,90.31
2018-04-06T10:57:58.035Z,91.17
2018-04-06T10:59:06.870Z,91.08
2018-04-06T11:00:15.753Z,91.55
2018-04-06T11:01:24.586Z,90.98
2018-04-06T11:02:33.419Z,91.08
2018-04-06T11:03:42.303Z,91.08
2018-04-06T11:04:51.140Z,90.98
2018-04-06T11:06:00.123Z,90.7
2018-04-06T11:07:09.508Z,91.27
2018-04-06T11:08:18.349Z,90.31
2018-04-06T11:09:27.187Z,88.93
2018-04-06T11:10:36.021Z,89.79
2018-04-06T11:11:44.903Z,89.4
2018-04-06T11:12:53.740Z,89.22
2018-04-06T11:14:02.855Z,89.5
2018-04-06T11:15:11.690Z,89.89
2018-04-06T11:16:20.582Z,88.26
2018-04-06T11:17:29.512Z,88.07
2018-04-06T11:18:38.627Z,88.45
2018-04-06T11:19:47.464Z,88.36
2018-04-06T11:20:56.305Z,88.07
2018-04-06T11:22:05.134Z,88.74
2018-04-06T11:23:14.265Z,88.93
2018-04-06T11:24:23.105Z,89.22
2018-04-06T11:25:31.956Z,88.45
2018-04-06T11:26:40.799Z,89.31
2018-04-06T11:27:49.634Z,88.69
2018-04-06T11:28:58.469Z,88.4
2018-04-06T11:30:07.306Z,85.73
2018-04-06T11:31:16.202Z,85.35
2018-04-06T11:32:25.042Z,86.59
2018-04-06T11:33:33.907Z,86.4
2018-04-06T11:34:42.895Z,86.21
2018-04-06T11:35:51.732Z,87.83
2018-04-06T11:37:00.569Z,86.02
2018-04-06T11:38:09.727Z,85.83
2018-04-06T11:39:18.558Z,86.49
2018-04-06T11:40:27.388Z,85.31
2018-04-06T11:41:36.230Z,84.36
2018-04-06T11:42:45.066Z,82.2
2018-04-06T11:43:53.903Z,82.01
2018-04-06T11:45:03.022Z,83.06
2018-04-06T11:46:12.184Z,83.25
2018-04-06T11:47:21.300Z,83.64
2018-04-06T11:48:30.159Z,83.25
2018-04-06T11:49:39.272Z,82.82
2018-04-06T11:50:48.111Z,82.63
2018-04-06T11:51:57.101Z,80.43
2018-04-06T11:53:06.213Z,80.05
2018-04-06T11:54:15.081Z,80.53
2018-04-06T11:55:23.889Z,78.05
2018-04-06T11:56:32.732Z,79.28
2018-04-06T11:57:41.594Z,80.05
2018-04-06T11:58:50.474Z,78.23
2018-04-06T11:59:59.309Z,78.62
2018-04-06T12:01:08.149Z,78.52
2018-04-06T12:02:16.987Z,78.23
2018-04-06T12:03:25.874Z,77.67
2018-04-06T12:04:34.720Z,77.32
2018-04-06T12:05:43.767Z,78.56
2018-04-06T12:06:53.113Z,77.8
2018-04-06T12:08:02.935Z,78.28
2018-04-06T12:09:12.381Z,79.04
2018-04-06T12:10:21.442Z,78.28
2018-04-06T12:11:30.393Z,77.32
2018-04-06T12:12:39.853Z,78.09
2018-04-06T12:13:50.056Z,78.56
2018-04-06T12:14:59.074Z,76.37
2018-04-06T12:16:07.933Z,75.16
2018-04-06T12:17:16.810Z,75.45
2018-04-06T12:18:25.960Z,74.88
2018-04-06T12:19:36.565Z,74.11
2018-04-06T12:20:45.696Z,75.74
2018-04-06T12:21:55.035Z,75.54
2018-04-06T12:23:04.848Z,73.63
2018-04-06T12:24:13.872Z,73.63
2018-04-06T12:25:23.084Z,75.54
2018-04-06T12:26:32.341Z,76.12
2018-04-06T12:27:41.531Z,74.53
2018-04-06T12:28:50.729Z,73.29
2018-04-06T12:30:00.248Z,75.68
2018-04-06T12:31:09.164Z,77.17
2018-04-06T12:32:18.893Z,77.45
2018-04-06T12:33:28.057Z,75.96
2018-04-06T12:34:36.910Z,75.1
2018-04-06T12:35:45.798Z,74.82
2018-04-06T12:36:54.986Z,74.53
2018-04-06T12:38:03.832Z,73.77
2018-04-06T12:39:12.711Z,71.22
2018-04-06T12:40:21.554Z,71.86
2018-04-06T12:41:30.601Z,73.39
2018-04-06T12:42:39.493Z,72.28
2018-04-06T12:43:48.331Z,75.05
2018-04-06T12:44:57.176Z,74.19
2018-04-06T12:46:06.029Z,74.19
2018-04-06T12:47:14.876Z,71.61
2018-04-06T12:48:23.995Z,72.41
2018-04-06T12:49:32.841Z,71.93
2018-04-06T12:50:41.691Z,72.41
2018-04-06T12:51:50.563Z,71.89
2018-04-06T12:52:59.413Z,72.08
2018-04-06T12:54:08.268Z,70.59
2018-04-06T12:55:17.111Z,69.25
2018-04-06T12:56:26.239Z,69.7
2018-04-06T12:57:35.085Z,69.6
2018-04-06T12:58:43.931Z,70.17
2018-04-06T12:59:52.780Z,70.11
2018-04-06T13:01:01.905Z,71.16
2018-04-06T13:02:10.753Z,68.58
2018-04-06T13:03:19.593Z,68.2
2018-04-06T13:04:28.438Z,68.1
2018-04-06T13:05:37.563Z,69.73
2018-04-06T13:06:46.688Z,69.25
2018-04-06T13:07:55.539Z,68.29
2018-04-06T13:09:04.488Z,66.28
2018-04-06T13:10:13.345Z,65.26
2018-04-06T13:11:22.193Z,65.23
2018-04-06T13:12:31.320Z,64.28
2018-04-06T13:13:40.167Z,62.87
2018-04-06T13:14:49.068Z,62.11
2018-04-06T13:15:58.467Z,63.45
2018-04-06T13:17:07.312Z,64.98
2018-04-06T13:18:16.456Z,65.94
2018-04-06T13:19:25.300Z,64.98
2018-04-06T13:20:34.568Z,64.5
2018-04-06T13:21:43.409Z,66.22
2018-04-06T13:22:52.255Z,66.22
2018-04-06T13:24:01.101Z,65.17
2018-04-06T13:25:09.943Z,63.16
2018-04-06T13:26:19.363Z,61.54
2018-04-06T13:27:28.220Z,62.9
2018-04-06T13:28:37.094Z,61.85
2018-04-06T13:29:45.937Z,61.57
2018-04-06T13:30:54.811Z,61.18
2018-04-06T13:32:03.766Z,59.87
2018-04-06T13:33:12.901Z,60.32
2018-04-06T13:34:21.946Z,60.99
2018-04-06T13:35:31.261Z,60.8
2018-04-06T13:36:40.122Z,60.61
2018-04-06T13:37:49.066Z,63.19
2018-04-06T13:38:57.918Z,63.22
2018-04-06T13:40:06.760Z,63.03
2018-04-06T13:41:15.638Z,63.51
2018-04-06T13:42:24.481Z,63.7
2018-04-06T13:43:33.375Z,62.17
2018-04-06T13:44:42.218Z,62.93
2018-04-06T13:45:51.094Z,62.84
2018-04-06T13:47:00.309Z,62.14
2018-04-06T13:48:09.158Z,61.76
2018-04-06T13:49:18.205Z,59.48
2018-04-06T13:50:27.367Z,61.6
2018-04-06T13:51:36.532Z,62.9
2018-04-06T13:52:45.378Z,62.93
2018-04-06T13:53:54.225Z,62.26
2018-04-06T13:55:03.174Z,60.44
2018-04-06T13:56:12.031Z,60.57
2018-04-06T13:57:20.882Z,60.47
2018-04-06T13:58:29.753Z,60.47
2018-04-06T13:59:38.939Z,61.15
2018-04-06T14:00:47.791Z,57.98
2018-04-06T14:01:56.640Z,56.07
2018-04-06T14:03:05.766Z,55.13
2018-04-06T14:04:14.613Z,53.31
2018-04-06T14:05:23.737Z,54.56
2018-04-06T14:06:33.055Z,52.16
2018-04-06T14:07:41.833Z,50.46
2018-04-06T14:08:50.960Z,50.65
2018-04-06T14:09:59.810Z,52.67
2018-04-06T14:11:08.670Z,53.94
2018-04-06T14:12:17.821Z,54.68
2018-04-06T14:13:26.688Z,56.7
2018-04-06T14:14:35.544Z,54.97
2018-04-06T14:15:44.429Z,54.78
2018-04-06T14:16:53.883Z,56.02
2018-04-06T14:18:03.456Z,54.68
2018-04-06T14:19:12.375Z,54.78
2018-04-06T14:20:21.246Z,54.13
2018-04-06T14:21:30.097Z,54.23
2018-04-06T14:22:38.950Z,55.19
2018-04-06T14:23:48.269Z,55.57
2018-04-06T14:24:57.118Z,55.89
2018-04-06T14:26:06.249Z,53.01
2018-04-06T14:27:15.303Z,52.08
2018-04-06T14:28:24.184Z,50.44
2018-04-06T14:29:33.159Z,50.44
2018-04-06T14:30:42.014Z,50.05
2018-04-06T14:31:50.866Z,51.5
2018-04-06T14:32:59.773Z,49.57
2018-04-06T14:34:08.629Z,51.09
2018-04-06T14:35:17.533Z,52.4
2018-04-06T14:36:26.390Z,50.7
2018-04-06T14:37:35.277Z,50.23
2018-04-06T14:38:44.120Z,49.82
2018-04-06T14:39:52.945Z,48.59
2018-04-06T14:41:01.846Z,48.52
2018-04-06T14:42:10.708Z,49.24
2018-04-06T14:43:19.561Z,50.01
2018-04-06T14:44:28.410Z,49.84
2018-04-06T14:45:37.264Z,48.13
2018-04-06T14:46:46.164Z,49.36
2018-04-06T14:47:55.295Z,47.27
2018-04-06T14:49:04.145Z,48.09
2018-04-06T14:50:13.056Z,47.71
2018-04-06T14:51:21.910Z,47.58